Time;durP1;ratioP1;P1;durP2;ratioP2;P2;SDS_P1;SDS_P2;PMS_P1;PMS_P2;Temp;Humidity;BMP_temperature;BMP_pressure;BME280_temperature;BME280_humidity;BME280_pressure;Samples;Min_cycle;Max_cycle;Signal;HPM_P1;HPM_P2
2023/06/22 00:00:58;;;;;;;37.80;33.75;;;19.40;99.90;;;;;;5073556;28;20044;-64
2023/06/22 00:03:25;;;;;;;37.97;33.50;;;19.50;99.90;;;;;;5073335;28;20504;-64
2023/06/22 00:05:51;;;;;;;28.40;25.48;;;19.50;99.90;;;;;;5073538;28;20405;-63
2023/06/22 00:08:18;;;;;;;18.08;16.17;;;19.50;99.90;;;;;;5073105;28;20040;-63
2023/06/22 00:10:45;;;;;;;18.17;15.63;;;19.50;99.90;;;;;;5073576;28;20094;-64
2023/06/22 00:13:12;;;;;;;31.20;28.20;;;19.50;99.90;;;;;;5073047;28;20048;-64
2023/06/22 00:15:40;;;;;;;31.65;28.27;;;19.40;99.90;;;;;;5055764;28;20495;-64
2023/06/22 00:18:10;;;;;;;20.60;18.40;;;19.40;99.90;;;;;;5073424;28;20048;-64
2023/06/22 00:20:38;;;;;;;16.80;14.00;;;19.20;99.90;;;;;;5073136;28;20400;-63
2023/06/22 00:23:08;;;;;;;16.55;14.75;;;19.20;99.90;;;;;;5073369;28;20480;-64
2023/06/22 00:25:39;;;;;;;17.42;14.90;;;19.20;99.90;;;;;;5073393;28;20036;-64
2023/06/22 00:28:07;;;;;;;18.83;16.83;;;19.30;99.90;;;;;;5072972;28;20045;-63
2023/06/22 00:30:33;;;;;;;30.23;27.15;;;19.30;99.90;;;;;;5072905;28;20084;-63
2023/06/22 00:33:00;;;;;;;30.13;26.92;;;19.30;99.90;;;;;;5073291;28;20041;-64
2023/06/22 00:35:29;;;;;;;39.90;35.65;;;19.20;99.90;;;;;;5073096;28;20400;-64
2023/06/22 00:38:03;;;;;;;20.02;17.58;;;19.10;99.90;;;;;;5072893;28;20052;-64
2023/06/22 00:40:32;;;;;;;19.75;17.65;;;19.00;99.90;;;;;;5055186;28;20446;-63
2023/06/22 00:42:58;;;;;;;28.23;25.30;;;19.00;99.90;;;;;;5054955;28;20503;-63
2023/06/22 00:45:25;;;;;;;28.58;25.50;;;19.00;99.90;;;;;;5072916;28;20123;-64
2023/06/22 00:47:52;;;;;;;24.15;20.90;;;19.00;99.90;;;;;;5073176;28;20090;-63
2023/06/22 00:50:23;;;;;;;40.28;36.00;;;19.00;99.90;;;;;;5072923;28;20040;-63
2023/06/22 00:52:52;;;;;;;35.25;31.65;;;19.00;99.90;;;;;;5073132;28;20044;-63
2023/06/22 00:55:22;;;;;;;29.42;26.25;;;19.00;99.90;;;;;;5073037;28;20073;-64
2023/06/22 00:57:48;;;;;;;24.48;21.83;;;18.90;99.90;;;;;;5072833;28;20047;-63
2023/06/22 01:00:19;;;;;;;25.42;22.65;;;18.90;99.90;;;;;;5072988;28;20048;-63
2023/06/22 01:02:46;;;;;;;21.35;19.13;;;18.90;99.90;;;;;;5076815;28;20106;-63
2023/06/22 01:05:15;;;;;;;33.03;29.52;;;18.90;99.90;;;;;;5077001;28;20127;-63
2023/06/22 01:07:41;;;;;;;27.38;24.50;;;18.90;99.90;;;;;;5076883;28;20093;-64
2023/06/22 01:10:28;;;;;;;35.08;31.40;;;18.90;99.90;;;;;;5076832;28;20040;-63
2023/06/22 01:13:04;;;;;;;30.85;27.60;;;18.90;99.90;;;;;;5076891;28;20044;-63
2023/06/22 01:15:44;;;;;;;35.03;31.30;;;18.80;99.90;;;;;;5058659;28;20049;-63
2023/06/22 01:18:10;;;;;;;36.03;32.35;;;18.70;99.90;;;;;;5076432;28;20044;-63
2023/06/22 01:20:38;;;;;;;40.10;35.92;;;18.60;99.90;;;;;;5076646;28;20110;-63
2023/06/22 01:23:29;;;;;;;32.90;29.52;;;18.50;99.90;;;;;;5076705;28;20507;-64
2023/06/22 01:26:10;;;;;;;36.38;32.63;;;18.50;99.90;;;;;;5058768;28;20040;-63
2023/06/22 01:28:47;;;;;;;32.60;29.23;;;18.40;99.90;;;;;;5076477;28;20044;-63
2023/06/22 01:31:20;;;;;;;35.45;31.77;;;18.40;99.90;;;;;;5076495;28;20048;-63
2023/06/22 01:33:51;;;;;;;30.33;27.02;;;18.50;99.90;;;;;;5076184;28;20040;-64
2023/06/22 01:36:17;;;;;;;25.48;22.88;;;18.40;99.90;;;;;;5076460;28;20107;-63
2023/06/22 01:38:45;;;;;;;23.98;21.52;;;18.50;99.90;;;;;;5076293;28;20041;-63
2023/06/22 01:41:12;;;;;;;25.80;22.33;;;18.50;99.90;;;;;;5076054;28;20123;-63
2023/06/22 01:43:38;;;;;;;23.75;21.15;;;18.60;99.90;;;;;;5076247;28;20097;-63
2023/06/22 01:46:04;;;;;;;36.92;33.08;;;18.60;99.90;;;;;;5076152;28;20043;-63
2023/06/22 01:48:31;;;;;;;39.03;34.90;;;18.60;99.90;;;;;;5075858;28;20163;-63
2023/06/22 01:50:57;;;;;;;35.65;31.73;;;18.50;99.90;;;;;;5057835;28;20044;-63
2023/06/22 01:53:24;;;;;;;27.55;24.65;;;18.50;99.90;;;;;;5075871;28;20032;-63
2023/06/22 01:55:50;;;;;;;26.77;23.92;;;18.50;99.90;;;;;;5076041;28;20059;-63
2023/06/22 01:58:16;;;;;;;31.25;28.00;;;18.50;99.90;;;;;;5075907;28;20040;-63
2023/06/22 02:00:52;;;;;;;28.60;25.50;;;18.40;99.90;;;;;;5075688;28;20039;-63
2023/06/22 02:03:22;;;;;;;24.80;22.05;;;18.40;99.90;;;;;;5075943;28;20037;-63
2023/06/22 02:05:52;;;;;;;24.52;21.65;;;18.40;99.90;;;;;;5075570;28;20093;-63
2023/06/22 02:08:22;;;;;;;24.23;21.73;;;18.50;99.90;;;;;;5075728;28;20111;-63
2023/06/22 02:10:50;;;;;;;26.30;23.50;;;18.50;99.90;;;;;;5075841;28;20117;-63
2023/06/22 02:13:16;;;;;;;29.05;26.13;;;18.50;99.90;;;;;;5074816;28;20040;-63
2023/06/22 02:15:43;;;;;;;38.75;34.72;;;18.50;99.90;;;;;;5057511;28;20045;-63
2023/06/22 02:18:09;;;;;;;24.45;21.95;;;18.40;99.90;;;;;;5075677;28;20111;-63
2023/06/22 02:20:38;;;;;;;29.33;26.25;;;18.50;99.90;;;;;;5057741;28;20111;-63
2023/06/22 02:23:06;;;;;;;21.30;18.95;;;18.50;99.90;;;;;;5075608;28;20045;-63
2023/06/22 02:25:32;;;;;;;22.90;20.50;;;18.50;99.90;;;;;;5075267;28;20131;-63
2023/06/22 02:27:58;;;;;;;24.10;21.63;;;18.40;99.90;;;;;;5057671;28;20040;-63
2023/06/22 02:30:24;;;;;;;24.70;22.05;;;18.40;99.90;;;;;;5074836;28;20117;-63
2023/06/22 02:32:58;;;;;;;22.95;20.55;;;18.40;99.90;;;;;;5075369;28;20053;-63
2023/06/22 02:35:35;;;;;;;22.77;20.38;;;18.30;99.90;;;;;;5075423;28;20182;-63
2023/06/22 02:38:02;;;;;;;24.05;21.13;;;18.30;99.90;;;;;;5075222;28;20365;-63
2023/06/22 02:40:29;;;;;;;23.33;20.70;;;18.30;99.90;;;;;;5075211;28;20498;-64
2023/06/22 02:42:57;;;;;;;22.42;20.13;;;18.30;99.90;;;;;;5074863;28;20071;-64
2023/06/22 02:45:23;;;;;;;21.40;19.15;;;18.30;99.90;;;;;;5057145;28;20167;-66
2023/06/22 02:47:49;;;;;;;28.27;25.27;;;18.30;99.90;;;;;;5075117;28;20082;-63
2023/06/22 02:50:15;;;;;;;23.33;20.90;;;18.30;99.90;;;;;;5074933;28;20036;-63
2023/06/22 02:52:41;;;;;;;23.25;20.77;;;18.30;99.90;;;;;;5074989;28;20040;-63
2023/06/22 02:55:08;;;;;;;21.95;19.65;;;18.20;99.90;;;;;;5074635;28;20032;-63
2023/06/22 02:57:34;;;;;;;23.15;20.83;;;18.20;99.90;;;;;;5074885;28;20040;-63
2023/06/22 02:59:59;;;;;;;26.83;24.13;;;18.10;99.90;;;;;;5074520;28;20044;-63
2023/06/22 03:02:26;;;;;;;30.13;27.13;;;18.10;99.90;;;;;;5074779;28;20094;-63
2023/06/22 03:04:53;;;;;;;24.98;22.48;;;18.00;99.90;;;;;;5074565;28;20062;-63
2023/06/22 03:07:20;;;;;;;23.65;21.25;;;18.00;99.90;;;;;;5074676;28;20047;-63
2023/06/22 03:09:46;;;;;;;41.53;37.25;;;18.00;99.90;;;;;;5056789;28;20566;-63
2023/06/22 03:12:11;;;;;;;27.00;24.25;;;17.90;99.90;;;;;;5040031;28;20040;-63
2023/06/22 03:14:38;;;;;;;34.05;30.50;;;17.90;99.90;;;;;;5074481;28;20060;-63
2023/06/22 03:17:05;;;;;;;21.95;19.65;;;17.90;99.90;;;;;;5074475;28;20105;-66
2023/06/22 03:19:31;;;;;;;23.55;20.20;;;17.90;99.90;;;;;;5074445;28;20040;-64
2023/06/22 03:22:00;;;;;;;32.50;29.23;;;17.90;99.90;;;;;;5074343;28;20507;-66
2023/06/22 03:24:28;;;;;;;34.80;31.30;;;17.90;99.90;;;;;;5073998;28;20041;-63
2023/06/22 03:26:54;;;;;;;25.67;23.05;;;17.90;99.90;;;;;;5074325;28;20075;-64
2023/06/22 03:29:20;;;;;;;24.83;22.33;;;17.90;99.90;;;;;;5073738;28;20049;-63
2023/06/22 03:31:46;;;;;;;24.05;21.55;;;17.90;99.90;;;;;;5073835;28;20047;-64
2023/06/22 03:34:12;;;;;;;26.00;23.33;;;17.90;99.90;;;;;;5073911;28;20036;-64
2023/06/22 03:36:37;;;;;;;22.85;20.52;;;17.90;99.90;;;;;;5074103;28;20033;-64
2023/06/22 03:39:03;;;;;;;35.17;31.65;;;17.80;99.90;;;;;;5074086;28;20116;-63
2023/06/22 03:41:29;;;;;;;25.73;23.00;;;17.80;99.90;;;;;;5073997;28;20126;-63
2023/06/22 03:43:54;;;;;;;22.95;20.55;;;17.70;99.90;;;;;;5073935;28;20044;-63
2023/06/22 03:46:20;;;;;;;24.63;22.13;;;17.70;99.90;;;;;;5056116;28;20044;-63
2023/06/22 03:48:46;;;;;;;31.00;27.88;;;17.70;99.90;;;;;;5073635;28;20041;-63
2023/06/22 03:51:12;;;;;;;33.03;29.75;;;17.80;99.90;;;;;;5073849;28;20082;-63
2023/06/22 03:53:37;;;;;;;32.05;28.73;;;17.80;99.90;;;;;;5073473;28;20035;-63
2023/06/22 03:56:03;;;;;;;42.13;37.83;;;17.80;99.90;;;;;;5073755;28;20040;-63
2023/06/22 03:58:32;;;;;;;39.97;35.92;;;17.80;99.90;;;;;;5073400;28;20037;-63
2023/06/22 04:00:59;;;;;;;41.78;37.55;;;17.70;99.90;;;;;;5073608;28;20048;-63
2023/06/22 04:03:25;;;;;;;38.42;34.50;;;17.60;99.90;;;;;;5073321;28;20040;-63
2023/06/22 04:05:51;;;;;;;39.05;35.30;;;17.50;99.90;;;;;;5073402;28;20085;-63
2023/06/22 04:08:17;;;;;;;33.72;30.23;;;17.40;99.90;;;;;;5055258;28;20040;-63
2023/06/22 04:10:44;;;;;;;36.28;32.70;;;17.30;99.90;;;;;;5073507;28;20036;-63
2023/06/22 04:13:09;;;;;;;32.25;29.02;;;17.30;99.90;;;;;;5073230;28;20393;-63
2023/06/22 04:15:35;;;;;;;38.83;35.05;;;17.20;99.90;;;;;;5073477;28;20044;-63
2023/06/22 04:18:01;;;;;;;43.20;38.72;;;17.20;99.90;;;;;;5073222;28;20040;-63
2023/06/22 04:20:26;;;;;;;45.15;40.47;;;17.10;99.90;;;;;;5073373;28;20123;-63
2023/06/22 04:22:55;;;;;;;39.08;35.17;;;17.00;99.90;;;;;;5073392;28;20042;-63
2023/06/22 04:25:21;;;;;;;40.45;36.42;;;17.00;99.90;;;;;;5073100;28;20043;-63
2023/06/22 04:27:48;;;;;;;43.20;38.75;;;17.00;99.90;;;;;;5073312;28;20037;-63
2023/06/22 04:30:16;;;;;;;46.22;41.50;;;17.00;99.90;;;;;;5072697;28;20056;-63
2023/06/22 04:32:41;;;;;;;41.58;37.38;;;17.00;99.90;;;;;;5072998;28;20044;-63
2023/06/22 04:35:08;;;;;;;45.15;40.63;;;17.00;99.90;;;;;;5072830;28;20047;-63
2023/06/22 04:37:34;;;;;;;47.13;42.25;;;16.90;99.90;;;;;;5072682;28;20477;-63
2023/06/22 04:40:00;;;;;;;49.67;44.47;;;16.90;99.90;;;;;;5072770;28;20040;-63
2023/06/22 04:42:29;;;;;;;47.85;42.95;;;17.00;99.90;;;;;;5054897;28;20177;-63
2023/06/22 04:44:54;;;;;;;49.28;43.92;;;17.00;99.90;;;;;;5072878;28;20397;-63
2023/06/22 04:47:20;;;;;;;46.72;41.92;;;17.00;99.90;;;;;;5038352;28;20048;-63
2023/06/22 04:49:46;;;;;;;46.83;41.85;;;17.00;99.90;;;;;;5072945;28;20076;-63
2023/06/22 04:52:13;;;;;;;48.65;43.40;;;17.00;99.90;;;;;;5054946;28;20044;-63
2023/06/22 04:54:47;;;;;;;46.13;41.22;;;17.00;99.90;;;;;;5073043;28;20500;-63
2023/06/22 04:57:14;;;;;;;50.92;45.63;;;17.10;99.90;;;;;;5072679;28;20040;-63
2023/06/22 04:59:41;;;;;;;53.92;48.38;;;17.10;99.90;;;;;;5073047;28;20047;-63
2023/06/22 05:02:08;;;;;;;53.05;47.55;;;17.30;99.90;;;;;;5072750;28;20040;-63
2023/06/22 05:04:35;;;;;;;47.35;42.45;;;17.60;99.90;;;;;;5072744;28;20059;-63
2023/06/22 05:07:02;;;;;;;50.92;45.55;;;17.80;99.90;;;;;;5072938;28;20040;-63
2023/06/22 05:09:29;;;;;;;51.55;46.15;;;18.10;99.90;;;;;;5072636;28;20068;-63
2023/06/22 05:11:56;;;;;;;51.80;46.50;;;18.70;99.90;;;;;;5072962;28;20070;-63
2023/06/22 05:14:25;;;;;;;49.03;43.75;;;18.70;99.90;;;;;;5073063;28;20464;-63
2023/06/22 05:16:51;;;;;;;47.15;42.13;;;19.00;99.90;;;;;;5072892;28;20041;-63
2023/06/22 05:19:17;;;;;;;45.78;41.08;;;19.30;99.90;;;;;;5072843;28;20048;-63
2023/06/22 05:21:43;;;;;;;45.58;40.88;;;19.40;99.90;;;;;;5072530;28;20106;-63
2023/06/22 05:24:09;;;;;;;45.78;41.08;;;19.50;99.90;;;;;;5054911;28;20124;-63
2023/06/22 05:26:35;;;;;;;41.30;37.08;;;19.80;99.90;;;;;;5054630;28;20041;-63
2023/06/22 05:29:02;;;;;;;44.72;40.17;;;20.20;99.90;;;;;;5072676;28;20044;-63
2023/06/22 05:31:29;;;;;;;43.92;39.53;;;20.30;99.90;;;;;;5072283;28;20049;-63
2023/06/22 05:33:55;;;;;;;40.00;35.90;;;20.50;99.90;;;;;;5072268;28;20037;-63
2023/06/22 05:36:24;;;;;;;40.10;35.90;;;20.90;99.90;;;;;;5054946;28;20036;-63
2023/06/22 05:38:56;;;;;;;38.45;34.55;;;21.40;99.90;;;;;;5072596;28;20045;-63
2023/06/22 05:41:22;;;;;;;36.15;32.38;;;21.30;99.90;;;;;;5072683;28;20066;-63
2023/06/22 05:43:47;;;;;;;36.55;32.75;;;21.90;99.90;;;;;;5072538;28;20115;-63
2023/06/22 05:46:13;;;;;;;39.08;35.13;;;22.20;99.90;;;;;;5072501;28;20040;-63
2023/06/22 05:48:39;;;;;;;40.17;36.15;;;22.70;99.90;;;;;;5056312;28;20473;-63
2023/06/22 05:51:05;;;;;;;36.13;32.42;;;22.80;99.90;;;;;;5076141;28;20086;-63
2023/06/22 05:53:30;;;;;;;38.15;34.15;;;22.50;99.90;;;;;;5075745;28;20048;-63
2023/06/22 05:55:56;;;;;;;36.00;32.30;;;22.90;99.90;;;;;;5075838;28;20044;-63
2023/06/22 05:58:22;;;;;;;37.08;33.28;;;23.10;99.90;;;;;;5076019;28;20041;-63
2023/06/22 06:00:48;;;;;;;38.88;34.88;;;23.20;99.90;;;;;;5075921;28;20036;-64
2023/06/22 06:03:16;;;;;;;36.88;33.25;;;23.20;99.90;;;;;;5075929;28;20039;-64
2023/06/22 06:05:44;;;;;;;37.67;33.85;;;23.50;99.90;;;;;;5075853;28;20044;-63
2023/06/22 06:08:11;;;;;;;37.67;33.70;;;23.40;99.90;;;;;;5075572;28;20040;-63
2023/06/22 06:10:37;;;;;;;39.97;35.97;;;23.10;99.90;;;;;;5057511;28;20123;-63
2023/06/22 06:13:04;;;;;;;35.08;31.48;;;23.10;99.90;;;;;;5075445;28;20040;-64
2023/06/22 06:15:30;;;;;;;37.47;33.63;;;23.00;99.90;;;;;;5057757;28;20094;-63
2023/06/22 06:17:56;;;;;;;31.75;28.55;;;23.30;99.90;;;;;;5075631;28;20037;-63
2023/06/22 06:20:23;;;;;;;33.88;30.38;;;23.30;99.90;;;;;;5075609;28;20400;-63
2023/06/22 06:22:49;;;;;;;31.38;28.17;;;23.40;99.90;;;;;;5075355;28;20047;-64
2023/06/22 06:25:18;;;;;;;31.15;27.88;;;23.70;99.90;;;;;;5075324;28;20086;-63
2023/06/22 06:27:45;;;;;;;32.10;28.83;;;24.20;99.90;;;;;;5057319;28;20075;-64
2023/06/22 06:30:12;;;;;;;29.05;26.05;;;24.60;99.90;;;;;;5075092;28;20084;-64
2023/06/22 06:32:38;;;;;;;30.40;27.40;;;24.80;99.90;;;;;;5057377;28;20098;-63
2023/06/22 06:35:11;;;;;;;27.25;24.35;;;24.80;99.90;;;;;;5057558;28;20032;-64
2023/06/22 06:37:41;;;;;;;28.65;25.75;;;24.80;99.90;;;;;;5074987;28;20041;-64
2023/06/22 06:40:10;;;;;;;28.65;25.60;;;25.20;99.90;;;;;;5075328;28;20097;-64
2023/06/22 06:42:41;;;;;;;25.88;23.17;;;25.00;99.90;;;;;;5057268;28;20509;-64
2023/06/22 06:45:12;;;;;;;28.48;25.67;;;24.40;99.90;;;;;;5075115;28;20041;-64
2023/06/22 06:47:38;;;;;;;31.25;28.05;;;24.50;99.90;;;;;;5074881;28;20041;-64
2023/06/22 06:50:05;;;;;;;24.52;21.92;;;23.90;99.90;;;;;;5075008;28;20076;-64
2023/06/22 06:52:31;;;;;;;25.38;22.80;;;23.90;99.90;;;;;;5075069;28;20040;-64
2023/06/22 06:54:56;;;;;;;22.45;20.08;;;24.00;99.90;;;;;;5074924;28;20033;-64
2023/06/22 06:57:22;;;;;;;21.60;19.40;;;23.80;99.90;;;;;;5074939;28;20115;-64
2023/06/22 06:59:49;;;;;;;20.67;18.48;;;23.40;99.90;;;;;;5074183;28;20055;-64
2023/06/22 07:02:15;;;;;;;22.45;20.13;;;23.70;99.90;;;;;;5074856;28;20121;-64
2023/06/22 07:04:41;;;;;;;20.40;17.83;;;23.90;99.90;;;;;;5074544;28;20041;-64
2023/06/22 07:07:07;;;;;;;20.10;17.65;;;24.10;99.90;;;;;;5074645;28;20094;-64
2023/06/22 07:09:33;;;;;;;20.42;18.27;;;23.80;99.90;;;;;;5056560;28;20041;-64
2023/06/22 07:11:59;;;;;;;16.75;15.00;;;24.00;99.90;;;;;;5074618;28;20119;-64
2023/06/22 07:14:24;;;;;;;19.58;17.55;;;24.10;99.90;;;;;;5074228;28;20037;-64
2023/06/22 07:16:50;;;;;;;19.90;17.80;;;24.20;99.90;;;;;;5056297;28;20044;-64
2023/06/22 07:19:16;;;;;;;16.92;15.00;;;24.00;99.90;;;;;;5074697;28;20481;-63
2023/06/22 07:21:41;;;;;;;16.42;14.73;;;24.00;99.90;;;;;;5056661;28;20045;-63
2023/06/22 07:24:07;;;;;;;16.73;14.60;;;24.50;99.90;;;;;;5056149;28;20433;-64
2023/06/22 07:26:33;;;;;;;18.27;15.75;;;24.60;99.90;;;;;;5074028;28;20044;-64
2023/06/22 07:28:59;;;;;;;15.70;13.63;;;24.40;99.90;;;;;;5074153;28;20055;-64
2023/06/22 07:31:25;;;;;;;16.17;13.20;;;24.60;99.90;;;;;;5056050;28;20139;-64
2023/06/22 07:33:51;;;;;;;14.55;12.20;;;24.90;99.90;;;;;;5073964;28;20039;-64
2023/06/22 07:36:18;;;;;;;14.20;12.00;;;25.00;99.90;;;;;;5074134;28;20037;-64
2023/06/22 07:38:44;;;;;;;15.05;12.98;;;25.20;99.60;;;;;;5073879;28;20041;-64
2023/06/22 07:41:09;;;;;;;13.73;11.25;;;25.20;99.90;;;;;;5055881;28;20040;-64
2023/06/22 07:43:36;;;;;;;14.23;11.50;;;25.10;99.60;;;;;;5055822;28;20051;-65
2023/06/22 07:46:05;;;;;;;13.63;10.40;;;25.10;99.90;;;;;;5074017;28;20370;-64
2023/06/22 07:48:31;;;;;;;12.23;9.85;;;25.50;99.50;;;;;;5073636;28;20080;-66
2023/06/22 07:50:57;;;;;;;11.45;9.95;;;25.70;98.70;;;;;;5055703;28;20098;-66
2023/06/22 07:53:23;;;;;;;11.07;8.55;;;26.10;98.40;;;;;;5073800;28;20060;-66
2023/06/22 07:55:49;;;;;;;12.40;8.82;;;26.30;97.70;;;;;;5073830;28;20075;-66
2023/06/22 07:58:15;;;;;;;12.55;9.85;;;26.40;97.00;;;;;;5073795;28;20080;-65
2023/06/22 08:00:41;;;;;;;10.98;8.15;;;25.90;95.80;;;;;;5073456;28;20045;-68
2023/06/22 08:03:07;;;;;;;9.27;7.80;;;26.00;95.90;;;;;;5073593;28;20047;-67
2023/06/22 08:05:33;;;;;;;10.88;7.93;;;25.90;96.80;;;;;;5039028;28;20094;-65
2023/06/22 08:07:59;;;;;;;9.85;8.00;;;25.80;94.50;;;;;;5073255;28;20032;-65
2023/06/22 08:10:25;;;;;;;10.68;7.47;;;25.90;95.30;;;;;;5072937;28;20124;-67
2023/06/22 08:12:52;;;;;;;10.77;7.53;;;26.00;95.00;;;;;;5073486;28;20064;-65
2023/06/22 08:15:17;;;;;;;9.45;6.65;;;25.80;95.70;;;;;;5039166;28;20056;-66
2023/06/22 08:17:45;;;;;;;9.82;7.13;;;26.00;95.50;;;;;;5073523;28;20032;-65
2023/06/22 08:20:12;;;;;;;10.98;7.88;;;25.80;94.70;;;;;;5073069;28;20040;-66
2023/06/22 08:22:38;;;;;;;10.50;7.15;;;25.80;95.10;;;;;;5073396;28;20553;-65
2023/06/22 08:25:04;;;;;;;9.85;6.57;;;26.00;95.10;;;;;;5055323;28;20075;-64
2023/06/22 08:27:33;;;;;;;10.00;6.68;;;26.20;95.20;;;;;;5073137;28;20064;-65
2023/06/22 08:30:00;;;;;;;11.90;7.90;;;26.60;94.70;;;;;;5072770;28;20053;-65
2023/06/22 08:32:32;;;;;;;10.85;8.05;;;26.70;93.30;;;;;;5055173;28;20044;-64
2023/06/22 08:34:58;;;;;;;10.05;8.13;;;26.80;93.70;;;;;;5073069;28;20080;-65
2023/06/22 08:37:30;;;;;;;10.95;7.50;;;26.40;93.50;;;;;;5055324;28;20040;-64
2023/06/22 08:39:56;;;;;;;9.93;7.15;;;26.60;94.20;;;;;;5054921;28;20053;-65
2023/06/22 08:42:23;;;;;;;10.50;7.47;;;26.30;94.50;;;;;;5073002;28;20044;-64
2023/06/22 08:44:50;;;;;;;11.13;8.15;;;26.60;93.20;;;;;;5038287;28;20040;-64
2023/06/22 08:47:15;;;;;;;10.80;7.88;;;26.20;93.80;;;;;;5073147;28;20048;-64
2023/06/22 08:49:41;;;;;;;9.52;7.20;;;26.50;94.00;;;;;;5038032;28;20480;-64
2023/06/22 08:52:07;;;;;;;9.45;7.75;;;26.80;93.70;;;;;;5073004;28;20124;-64
2023/06/22 08:54:34;;;;;;;11.48;8.32;;;27.00;93.00;;;;;;5055293;28;20032;-64
2023/06/22 08:57:01;;;;;;;9.98;7.93;;;26.80;92.60;;;;;;5054763;28;20044;-64
2023/06/22 08:59:27;;;;;;;10.60;7.93;;;27.00;92.50;;;;;;5073011;28;20047;-64
2023/06/22 09:01:52;;;;;;;11.20;7.75;;;26.90;92.50;;;;;;5073022;28;20396;-64
2023/06/22 09:04:18;;;;;;;10.07;7.82;;;27.00;92.40;;;;;;5038207;28;20091;-63
2023/06/22 09:06:45;;;;;;;12.80;9.15;;;27.10;92.50;;;;;;5072979;28;20457;-64
2023/06/22 09:09:13;;;;;;;11.13;7.88;;;26.80;92.00;;;;;;5072545;28;20055;-64
2023/06/22 09:11:39;;;;;;;10.32;8.25;;;26.80;92.90;;;;;;5038360;28;20389;-64
2023/06/22 09:14:05;;;;;;;10.95;7.78;;;27.00;92.30;;;;;;5072953;28;20033;-64
2023/06/22 09:16:31;;;;;;;11.00;7.45;;;27.10;92.40;;;;;;5054676;28;20048;-64
2023/06/22 09:18:56;;;;;;;10.07;7.75;;;27.30;92.60;;;;;;5072805;28;20489;-64
2023/06/22 09:21:23;;;;;;;11.48;7.88;;;27.50;91.40;;;;;;5054939;28;20054;-64
2023/06/22 09:23:51;;;;;;;9.70;7.85;;;27.70;91.00;;;;;;5076263;28;20480;-64
2023/06/22 09:26:20;;;;;;;10.05;7.60;;;27.50;90.50;;;;;;5025687;28;20041;-64
2023/06/22 09:28:46;;;;;;;10.98;8.30;;;27.40;91.30;;;;;;5076202;28;20094;-64
2023/06/22 09:31:12;;;;;;;11.23;7.90;;;27.60;91.20;;;;;;5076092;28;20455;-64
2023/06/22 09:33:40;;;;;;;11.15;8.25;;;27.10;91.10;;;;;;5058353;28;20036;-64
2023/06/22 09:36:09;;;;;;;13.95;8.07;;;27.40;90.70;;;;;;5076461;28;20051;-64
2023/06/22 09:38:38;;;;;;;10.50;7.32;;;27.40;90.90;;;;;;5076394;28;20040;-64
2023/06/22 09:41:04;;;;;;;9.70;7.40;;;27.50;91.00;;;;;;5076470;28;20116;-64
2023/06/22 09:43:34;;;;;;;12.18;8.82;;;27.70;90.80;;;;;;5041596;28;20045;-64
2023/06/22 09:46:01;;;;;;;11.73;8.52;;;27.50;90.30;;;;;;5076324;28;20063;-64
2023/06/22 09:48:29;;;;;;;10.57;7.07;;;27.90;90.10;;;;;;5058090;28;20037;-64
2023/06/22 09:50:55;;;;;;;13.30;9.95;;;28.00;90.70;;;;;;5076193;28;20044;-64
2023/06/22 09:53:20;;;;;;;11.30;7.50;;;28.20;89.70;;;;;;5041163;28;20048;-64
2023/06/22 09:55:46;;;;;;;10.55;8.25;;;27.90;90.10;;;;;;5075752;28;20404;-64
2023/06/22 09:58:12;;;;;;;10.77;7.60;;;27.80;89.00;;;;;;5075743;28;20119;-64
2023/06/22 10:00:38;;;;;;;14.77;11.38;;;27.60;90.60;;;;;;5076047;28;20170;-64
2023/06/22 10:03:04;;;;;;;13.32;9.55;;;28.10;89.40;;;;;;5058117;28;20036;-64
2023/06/22 10:05:29;;;;;;;9.75;7.40;;;28.20;88.70;;;;;;5075640;28;20123;-64
2023/06/22 10:07:55;;;;;;;11.50;8.18;;;28.10;88.30;;;;;;5075542;28;20043;-64
2023/06/22 10:10:21;;;;;;;10.05;7.07;;;27.70;88.80;;;;;;5057855;28;20056;-64
2023/06/22 10:12:55;;;;;;;11.10;7.80;;;27.70;89.10;;;;;;5057992;28;20465;-64
2023/06/22 10:15:21;;;;;;;10.98;7.70;;;27.70;89.50;;;;;;5057639;28;20083;-64
2023/06/22 10:17:47;;;;;;;10.82;8.13;;;27.80;88.40;;;;;;5075681;28;20040;-64
2023/06/22 10:20:13;;;;;;;12.20;9.00;;;27.80;88.90;;;;;;5075675;28;20067;-64
2023/06/22 10:22:43;;;;;;;11.90;9.25;;;27.70;89.30;;;;;;5075655;28;20423;-64
2023/06/22 10:25:10;;;;;;;10.10;7.65;;;27.70;89.10;;;;;;5075498;28;20071;-64
2023/06/22 10:27:39;;;;;;;9.95;7.88;;;27.80;89.70;;;;;;5075314;28;20037;-64
2023/06/22 10:30:06;;;;;;;11.23;8.57;;;28.00;89.00;;;;;;5074908;28;20088;-64
2023/06/22 10:32:32;;;;;;;11.02;8.20;;;28.30;89.10;;;;;;5057806;28;20044;-64
2023/06/22 10:34:58;;;;;;;11.82;7.93;;;28.50;87.80;;;;;;5074380;28;20120;-64
2023/06/22 10:37:24;;;;;;;11.82;8.02;;;28.70;86.60;;;;;;5075140;28;20094;-64
2023/06/22 10:39:50;;;;;;;10.15;7.07;;;28.60;86.40;;;;;;5057229;28;20105;-64
2023/06/22 10:42:16;;;;;;;10.23;7.65;;;28.40;86.80;;;;;;5075160;28;20044;-64
2023/06/22 10:44:43;;;;;;;11.55;8.35;;;28.60;86.60;;;;;;5075236;28;20043;-64
2023/06/22 10:47:11;;;;;;;11.48;8.52;;;28.50;86.20;;;;;;5074854;28;20043;-64
2023/06/22 10:49:40;;;;;;;10.75;8.13;;;28.10;86.30;;;;;;5075014;28;20045;-64
2023/06/22 10:52:07;;;;;;;11.75;8.48;;;28.00;87.00;;;;;;5074813;28;20040;-64
2023/06/22 10:54:34;;;;;;;12.43;8.38;;;27.90;87.50;;;;;;5074551;28;20047;-64
2023/06/22 10:57:00;;;;;;;11.70;8.68;;;28.20;86.50;;;;;;5074703;28;20122;-64
2023/06/22 10:59:27;;;;;;;11.48;9.25;;;27.80;87.90;;;;;;5074905;28;20040;-64
2023/06/22 11:01:53;;;;;;;11.30;8.90;;;28.00;87.80;;;;;;5074571;28;20114;-64
2023/06/22 11:04:19;;;;;;;12.25;8.90;;;28.20;86.70;;;;;;5056777;28;20044;-64
2023/06/22 11:06:44;;;;;;;11.70;9.27;;;27.90;87.70;;;;;;5074396;28;20036;-64
2023/06/22 11:09:10;;;;;;;9.95;7.90;;;27.90;87.00;;;;;;5074317;28;20040;-64
2023/06/22 11:11:36;;;;;;;10.23;7.00;;;28.00;86.20;;;;;;5074468;28;20481;-64
2023/06/22 11:14:02;;;;;;;10.65;8.70;;;28.10;86.90;;;;;;5074316;28;20040;-64
2023/06/22 11:16:27;;;;;;;10.57;8.00;;;28.10;85.10;;;;;;5074278;28;20033;-64
2023/06/22 11:18:53;;;;;;;10.10;7.00;;;28.10;86.00;;;;;;5056516;28;20174;-64
2023/06/22 11:21:19;;;;;;;9.93;7.43;;;28.00;86.00;;;;;;5039814;28;20036;-64
2023/06/22 11:23:45;;;;;;;11.23;7.50;;;28.10;85.80;;;;;;5074404;28;20037;-64
2023/06/22 11:26:11;;;;;;;10.43;7.28;;;28.30;86.40;;;;;;5056113;28;20041;-64
2023/06/22 11:28:36;;;;;;;11.20;7.85;;;28.40;87.00;;;;;;5056313;28;20038;-64
2023/06/22 11:31:03;;;;;;;10.18;8.10;;;28.40;87.40;;;;;;5039376;28;20063;-64
2023/06/22 11:33:29;;;;;;;11.13;7.90;;;28.30;86.90;;;;;;5074250;28;20059;-64
2023/06/22 11:35:56;;;;;;;9.20;7.60;;;28.00;86.90;;;;;;5074199;28;20036;-64
2023/06/22 11:38:22;;;;;;;11.93;9.02;;;28.00;87.00;;;;;;5056201;28;20391;-64
2023/06/22 11:40:47;;;;;;;12.20;8.77;;;27.70;86.80;;;;;;5073840;28;20040;-64
2023/06/22 11:43:14;;;;;;;10.77;8.63;;;27.40;88.10;;;;;;5074054;28;20167;-64
2023/06/22 11:45:40;;;;;;;9.63;7.72;;;27.30;88.90;;;;;;5072667;28;20106;-64
2023/06/22 11:48:06;;;;;;;10.68;7.82;;;27.40;89.30;;;;;;5073785;28;20048;-64
2023/06/22 11:50:35;;;;;;;11.52;8.30;;;27.20;87.90;;;;;;5073755;28;20097;-64
2023/06/22 11:53:02;;;;;;;12.82;9.63;;;27.40;88.30;;;;;;5056028;28;20048;-64
2023/06/22 11:55:28;;;;;;;12.40;9.45;;;27.40;88.50;;;;;;5039269;28;20381;-64
2023/06/22 11:58:03;;;;;;;10.32;7.43;;;27.20;87.70;;;;;;5055471;28;20036;-64
2023/06/22 12:00:29;;;;;;;10.50;7.38;;;27.40;89.30;;;;;;5073342;28;20048;-64
2023/06/22 12:02:56;;;;;;;12.57;8.05;;;27.50;89.80;;;;;;5073554;28;20056;-64
2023/06/22 12:05:22;;;;;;;10.65;7.30;;;27.70;88.40;;;;;;5073679;28;20063;-64
2023/06/22 12:07:48;;;;;;;10.77;6.95;;;27.80;86.90;;;;;;5073647;28;20040;-65
2023/06/22 12:10:15;;;;;;;8.98;6.00;;;27.80;86.70;;;;;;5073116;28;20036;-64
2023/06/22 12:12:41;;;;;;;9.38;6.18;;;28.00;86.70;;;;;;5073319;28;20052;-64
2023/06/22 12:15:07;;;;;;;9.65;6.47;;;28.00;85.90;;;;;;5073215;28;20043;-64
2023/06/22 12:17:34;;;;;;;10.07;6.50;;;28.00;86.30;;;;;;5073462;28;20044;-64
2023/06/22 12:20:00;;;;;;;8.70;6.38;;;28.10;85.00;;;;;;5055150;28;20041;-64
2023/06/22 12:22:25;;;;;;;10.52;6.57;;;28.10;85.90;;;;;;5038899;28;20052;-65
2023/06/22 12:24:51;;;;;;;8.40;6.47;;;28.20;83.70;;;;;;5073040;28;20067;-65
2023/06/22 12:27:18;;;;;;;9.80;6.60;;;28.10;84.80;;;;;;5073053;28;20131;-65
2023/06/22 12:29:45;;;;;;;8.80;5.70;;;27.80;85.40;;;;;;5072867;28;20054;-66